sensor_id;sensor_type;location;lat;lon;timestamp;P1;durP1;ratioP1;P2;durP2;ratioP2
39788;SDS011;25478;42.626;23.320;2023-08-21T00:01:13;9.10;;;6.25;;
39788;SDS011;25478;42.626;23.320;2023-08-21T00:03:38;8.75;;;5.85;;
39788;SDS011;25478;42.626;23.320;2023-08-21T00:06:04;8.45;;;6.25;;
39788;SDS011;25478;42.626;23.320;2023-08-21T00:08:29;8.07;;;5.88;;
39788;SDS011;25478;42.626;23.320;2023-08-21T00:10:55;8.77;;;6.25;;
39788;SDS011;25478;42.626;23.320;2023-08-21T00:13:21;9.77;;;6.40;;
39788;SDS011;25478;42.626;23.320;2023-08-21T00:15:46;9.77;;;5.88;;
39788;SDS011;25478;42.626;23.320;2023-08-21T00:18:12;9.10;;;5.60;;
39788;SDS011;25478;42.626;23.320;2023-08-21T00:20:37;9.00;;;6.05;;
39788;SDS011;25478;42.626;23.320;2023-08-21T00:23:04;8.88;;;6.40;;
39788;SDS011;25478;42.626;23.320;2023-08-21T00:25:29;9.48;;;6.13;;
39788;SDS011;25478;42.626;23.320;2023-08-21T00:27:55;8.07;;;6.32;;
39788;SDS011;25478;42.626;23.320;2023-08-21T00:30:20;9.00;;;6.45;;
39788;SDS011;25478;42.626;23.320;2023-08-21T00:32:46;8.60;;;6.28;;
39788;SDS011;25478;42.626;23.320;2023-08-21T00:35:11;9.50;;;6.32;;
39788;SDS011;25478;42.626;23.320;2023-08-21T00:37:37;9.68;;;6.15;;
39788;SDS011;25478;42.626;23.320;2023-08-21T00:40:02;8.95;;;6.18;;
39788;SDS011;25478;42.626;23.320;2023-08-21T00:42:28;8.00;;;5.82;;
39788;SDS011;25478;42.626;23.320;2023-08-21T00:44:54;7.10;;;5.78;;
39788;SDS011;25478;42.626;23.320;2023-08-21T00:47:19;10.85;;;7.15;;
39788;SDS011;25478;42.626;23.320;2023-08-21T00:49:46;8.07;;;6.20;;
39788;SDS011;25478;42.626;23.320;2023-08-21T00:52:12;6.90;;;5.57;;
39788;SDS011;25478;42.626;23.320;2023-08-21T00:54:40;9.60;;;6.20;;
39788;SDS011;25478;42.626;23.320;2023-08-21T00:57:06;8.65;;;5.72;;
39788;SDS011;25478;42.626;23.320;2023-08-21T00:59:33;9.65;;;6.53;;
39788;SDS011;25478;42.626;23.320;2023-08-21T01:01:59;10.95;;;6.15;;
39788;SDS011;25478;42.626;23.320;2023-08-21T01:04:24;8.48;;;6.65;;
39788;SDS011;25478;42.626;23.320;2023-08-21T01:06:50;8.43;;;5.78;;
39788;SDS011;25478;42.626;23.320;2023-08-21T01:14:59;8.60;;;5.65;;
39788;SDS011;25478;42.626;23.320;2023-08-21T01:17:29;9.43;;;6.00;;
39788;SDS011;25478;42.626;23.320;2023-08-21T01:19:55;8.70;;;5.85;;
39788;SDS011;25478;42.626;23.320;2023-08-21T01:22:29;10.55;;;6.22;;
39788;SDS011;25478;42.626;23.320;2023-08-21T01:25:01;7.43;;;6.20;;
39788;SDS011;25478;42.626;23.320;2023-08-21T01:27:27;8.57;;;5.50;;
39788;SDS011;25478;42.626;23.320;2023-08-21T01:29:53;8.52;;;5.63;;
39788;SDS011;25478;42.626;23.320;2023-08-21T01:34:51;8.27;;;5.80;;
39788;SDS011;25478;42.626;23.320;2023-08-21T01:37:20;10.43;;;6.10;;
39788;SDS011;25478;42.626;23.320;2023-08-21T01:39:48;8.98;;;5.95;;
39788;SDS011;25478;42.626;23.320;2023-08-21T01:42:13;8.30;;;5.80;;
39788;SDS011;25478;42.626;23.320;2023-08-21T01:44:39;7.78;;;5.93;;
39788;SDS011;25478;42.626;23.320;2023-08-21T01:47:05;10.38;;;5.90;;
39788;SDS011;25478;42.626;23.320;2023-08-21T01:49:31;16.05;;;6.70;;
39788;SDS011;25478;42.626;23.320;2023-08-21T01:51:57;7.57;;;5.95;;
39788;SDS011;25478;42.626;23.320;2023-08-21T01:54:24;8.32;;;5.93;;
39788;SDS011;25478;42.626;23.320;2023-08-21T01:56:49;8.07;;;6.20;;
39788;SDS011;25478;42.626;23.320;2023-08-21T01:59:16;8.45;;;6.20;;
39788;SDS011;25478;42.626;23.320;2023-08-21T02:01:42;8.07;;;6.15;;
39788;SDS011;25478;42.626;23.320;2023-08-21T02:04:07;9.40;;;5.72;;
39788;SDS011;25478;42.626;23.320;2023-08-21T02:06:33;7.47;;;5.45;;
39788;SDS011;25478;42.626;23.320;2023-08-21T02:08:59;8.10;;;5.60;;
39788;SDS011;25478;42.626;23.320;2023-08-21T02:11:24;10.38;;;6.13;;
39788;SDS011;25478;42.626;23.320;2023-08-21T02:13:51;7.90;;;5.70;;
39788;SDS011;25478;42.626;23.320;2023-08-21T02:16:16;7.95;;;5.70;;
39788;SDS011;25478;42.626;23.320;2023-08-21T02:18:42;7.65;;;6.38;;
39788;SDS011;25478;42.626;23.320;2023-08-21T02:21:07;8.57;;;6.07;;
39788;SDS011;25478;42.626;23.320;2023-08-21T02:23:33;9.95;;;6.00;;
39788;SDS011;25478;42.626;23.320;2023-08-21T02:25:58;9.45;;;5.75;;
39788;SDS011;25478;42.626;23.320;2023-08-21T02:28:24;9.23;;;6.13;;
39788;SDS011;25478;42.626;23.320;2023-08-21T02:30:50;7.57;;;5.90;;
39788;SDS011;25478;42.626;23.320;2023-08-21T02:33:16;10.98;;;6.63;;
39788;SDS011;25478;42.626;23.320;2023-08-21T02:35:42;8.27;;;5.93;;
39788;SDS011;25478;42.626;23.320;2023-08-21T02:38:08;8.18;;;5.82;;
39788;SDS011;25478;42.626;23.320;2023-08-21T02:40:34;9.80;;;6.10;;
39788;SDS011;25478;42.626;23.320;2023-08-21T02:43:00;7.13;;;6.18;;
39788;SDS011;25478;42.626;23.320;2023-08-21T02:45:26;7.43;;;5.80;;
39788;SDS011;25478;42.626;23.320;2023-08-21T02:47:51;10.02;;;6.35;;
39788;SDS011;25478;42.626;23.320;2023-08-21T02:50:17;9.95;;;6.30;;
39788;SDS011;25478;42.626;23.320;2023-08-21T02:52:42;8.45;;;6.15;;
39788;SDS011;25478;42.626;23.320;2023-08-21T02:55:08;10.50;;;6.53;;
39788;SDS011;25478;42.626;23.320;2023-08-21T02:57:34;9.75;;;6.40;;
39788;SDS011;25478;42.626;23.320;2023-08-21T02:59:59;8.52;;;6.53;;
39788;SDS011;25478;42.626;23.320;2023-08-21T03:02:25;15.13;;;6.90;;
39788;SDS011;25478;42.626;23.320;2023-08-21T03:04:51;9.02;;;6.82;;
39788;SDS011;25478;42.626;23.320;2023-08-21T03:07:17;10.63;;;6.68;;
39788;SDS011;25478;42.626;23.320;2023-08-21T03:09:44;10.07;;;6.72;;
39788;SDS011;25478;42.626;23.320;2023-08-21T03:12:12;8.15;;;6.25;;
39788;SDS011;25478;42.626;23.320;2023-08-21T03:14:37;11.70;;;6.55;;
39788;SDS011;25478;42.626;23.320;2023-08-21T03:17:03;9.40;;;6.78;;
39788;SDS011;25478;42.626;23.320;2023-08-21T03:19:29;11.13;;;6.85;;
39788;SDS011;25478;42.626;23.320;2023-08-21T03:21:54;9.63;;;6.75;;
39788;SDS011;25478;42.626;23.320;2023-08-21T03:24:21;9.80;;;6.68;;
39788;SDS011;25478;42.626;23.320;2023-08-21T03:26:47;9.43;;;7.00;;
39788;SDS011;25478;42.626;23.320;2023-08-21T03:29:13;11.48;;;7.00;;
39788;SDS011;25478;42.626;23.320;2023-08-21T03:31:38;11.73;;;6.85;;
39788;SDS011;25478;42.626;23.320;2023-08-21T03:34:03;12.80;;;7.10;;
39788;SDS011;25478;42.626;23.320;2023-08-21T03:36:29;9.20;;;6.68;;
39788;SDS011;25478;42.626;23.320;2023-08-21T03:39:03;13.95;;;7.10;;
39788;SDS011;25478;42.626;23.320;2023-08-21T03:41:35;10.05;;;6.93;;
39788;SDS011;25478;42.626;23.320;2023-08-21T03:44:01;11.93;;;6.97;;
39788;SDS011;25478;42.626;23.320;2023-08-21T03:46:26;10.18;;;7.15;;
39788;SDS011;25478;42.626;23.320;2023-08-21T03:48:53;11.57;;;7.22;;
39788;SDS011;25478;42.626;23.320;2023-08-21T03:51:19;11.95;;;6.70;;
39788;SDS011;25478;42.626;23.320;2023-08-21T03:53:44;10.98;;;6.72;;
39788;SDS011;25478;42.626;23.320;2023-08-21T03:56:10;11.70;;;6.75;;
39788;SDS011;25478;42.626;23.320;2023-08-21T03:58:35;10.75;;;6.82;;
39788;SDS011;25478;42.626;23.320;2023-08-21T04:01:01;10.30;;;6.75;;
39788;SDS011;25478;42.626;23.320;2023-08-21T04:03:27;10.48;;;6.80;;
39788;SDS011;25478;42.626;23.320;2023-08-21T04:05:53;11.23;;;7.15;;
39788;SDS011;25478;42.626;23.320;2023-08-21T04:08:19;10.18;;;7.07;;
39788;SDS011;25478;42.626;23.320;2023-08-21T04:10:45;12.20;;;7.20;;
39788;SDS011;25478;42.626;23.320;2023-08-21T04:13:10;9.35;;;6.78;;
39788;SDS011;25478;42.626;23.320;2023-08-21T04:15:37;12.07;;;7.40;;
39788;SDS011;25478;42.626;23.320;2023-08-21T04:18:04;9.88;;;6.70;;
39788;SDS011;25478;42.626;23.320;2023-08-21T04:20:30;7.97;;;6.30;;
39788;SDS011;25478;42.626;23.320;2023-08-21T04:22:56;9.40;;;7.00;;
39788;SDS011;25478;42.626;23.320;2023-08-21T04:25:21;9.93;;;6.97;;
39788;SDS011;25478;42.626;23.320;2023-08-21T04:27:47;12.68;;;6.72;;
39788;SDS011;25478;42.626;23.320;2023-08-21T04:30:13;10.23;;;7.07;;
39788;SDS011;25478;42.626;23.320;2023-08-21T04:32:39;10.68;;;6.35;;
39788;SDS011;25478;42.626;23.320;2023-08-21T04:35:04;13.18;;;7.70;;
39788;SDS011;25478;42.626;23.320;2023-08-21T04:37:31;11.38;;;7.88;;
39788;SDS011;25478;42.626;23.320;2023-08-21T04:39:56;12.02;;;7.13;;
39788;SDS011;25478;42.626;23.320;2023-08-21T04:42:22;9.95;;;7.10;;
39788;SDS011;25478;42.626;23.320;2023-08-21T04:44:47;14.95;;;7.53;;
39788;SDS011;25478;42.626;23.320;2023-08-21T04:47:19;12.13;;;7.22;;
39788;SDS011;25478;42.626;23.320;2023-08-21T04:49:52;12.35;;;7.13;;
39788;SDS011;25478;42.626;23.320;2023-08-21T04:52:18;13.43;;;7.00;;
39788;SDS011;25478;42.626;23.320;2023-08-21T04:54:44;16.17;;;7.38;;
39788;SDS011;25478;42.626;23.320;2023-08-21T04:57:10;13.25;;;7.63;;
39788;SDS011;25478;42.626;23.320;2023-08-21T04:59:36;14.40;;;7.30;;
39788;SDS011;25478;42.626;23.320;2023-08-21T05:02:01;12.68;;;7.78;;
39788;SDS011;25478;42.626;23.320;2023-08-21T05:04:28;13.32;;;7.47;;
39788;SDS011;25478;42.626;23.320;2023-08-21T05:06:53;14.40;;;7.22;;
39788;SDS011;25478;42.626;23.320;2023-08-21T05:09:19;14.98;;;7.95;;
39788;SDS011;25478;42.626;23.320;2023-08-21T05:11:45;17.50;;;8.13;;
39788;SDS011;25478;42.626;23.320;2023-08-21T05:14:12;18.40;;;8.50;;
39788;SDS011;25478;42.626;23.320;2023-08-21T05:16:38;15.52;;;8.70;;
39788;SDS011;25478;42.626;23.320;2023-08-21T05:19:03;16.13;;;9.35;;
39788;SDS011;25478;42.626;23.320;2023-08-21T05:21:29;21.92;;;10.02;;
39788;SDS011;25478;42.626;23.320;2023-08-21T05:23:55;16.33;;;9.25;;
39788;SDS011;25478;42.626;23.320;2023-08-21T05:26:21;18.27;;;8.60;;
39788;SDS011;25478;42.626;23.320;2023-08-21T05:28:46;18.75;;;9.70;;
39788;SDS011;25478;42.626;23.320;2023-08-21T05:31:12;19.58;;;9.43;;
39788;SDS011;25478;42.626;23.320;2023-08-21T05:33:46;16.58;;;10.02;;
39788;SDS011;25478;42.626;23.320;2023-08-21T05:36:12;17.15;;;10.13;;
39788;SDS011;25478;42.626;23.320;2023-08-21T05:38:38;17.25;;;9.98;;
39788;SDS011;25478;42.626;23.320;2023-08-21T05:41:03;16.13;;;10.32;;
39788;SDS011;25478;42.626;23.320;2023-08-21T05:43:29;17.65;;;8.80;;
39788;SDS011;25478;42.626;23.320;2023-08-21T05:45:56;12.75;;;8.45;;
39788;SDS011;25478;42.626;23.320;2023-08-21T05:48:21;12.20;;;8.30;;
39788;SDS011;25478;42.626;23.320;2023-08-21T05:50:51;13.23;;;8.27;;
39788;SDS011;25478;42.626;23.320;2023-08-21T05:53:18;15.68;;;8.18;;
39788;SDS011;25478;42.626;23.320;2023-08-21T05:55:44;12.93;;;8.00;;
39788;SDS011;25478;42.626;23.320;2023-08-21T05:58:10;16.60;;;8.00;;
39788;SDS011;25478;42.626;23.320;2023-08-21T06:00:38;14.60;;;8.05;;
39788;SDS011;25478;42.626;23.320;2023-08-21T06:03:05;13.40;;;7.60;;
39788;SDS011;25478;42.626;23.320;2023-08-21T06:05:59;11.32;;;7.07;;
39788;SDS011;25478;42.626;23.320;2023-08-21T06:08:24;15.65;;;7.53;;
39788;SDS011;25478;42.626;23.320;2023-08-21T06:10:50;16.10;;;7.57;;
39788;SDS011;25478;42.626;23.320;2023-08-21T06:13:16;17.13;;;8.10;;
39788;SDS011;25478;42.626;23.320;2023-08-21T06:15:46;14.70;;;8.30;;
39788;SDS011;25478;42.626;23.320;2023-08-21T06:18:12;17.17;;;8.32;;
39788;SDS011;25478;42.626;23.320;2023-08-21T06:20:37;13.82;;;8.02;;
39788;SDS011;25478;42.626;23.320;2023-08-21T06:23:03;23.77;;;8.55;;
39788;SDS011;25478;42.626;23.320;2023-08-21T06:25:28;17.50;;;8.40;;
39788;SDS011;25478;42.626;23.320;2023-08-21T06:27:56;14.30;;;8.48;;
39788;SDS011;25478;42.626;23.320;2023-08-21T06:30:21;16.23;;;7.97;;
39788;SDS011;25478;42.626;23.320;2023-08-21T06:32:47;14.23;;;8.80;;
39788;SDS011;25478;42.626;23.320;2023-08-21T06:35:12;13.68;;;8.35;;
39788;SDS011;25478;42.626;23.320;2023-08-21T06:37:41;16.15;;;7.90;;
39788;SDS011;25478;42.626;23.320;2023-08-21T06:40:07;14.38;;;8.35;;
39788;SDS011;25478;42.626;23.320;2023-08-21T06:42:33;15.25;;;8.23;;
39788;SDS011;25478;42.626;23.320;2023-08-21T06:44:58;15.73;;;7.72;;
39788;SDS011;25478;42.626;23.320;2023-08-21T06:47:24;10.50;;;7.60;;
39788;SDS011;25478;42.626;23.320;2023-08-21T06:49:49;14.88;;;7.80;;
39788;SDS011;25478;42.626;23.320;2023-08-21T06:52:15;13.57;;;8.05;;
39788;SDS011;25478;42.626;23.320;2023-08-21T06:54:41;14.30;;;7.60;;
39788;SDS011;25478;42.626;23.320;2023-08-21T06:57:06;14.65;;;7.95;;
39788;SDS011;25478;42.626;23.320;2023-08-21T06:59:32;12.40;;;7.13;;
39788;SDS011;25478;42.626;23.320;2023-08-21T07:02:01;11.90;;;7.10;;
39788;SDS011;25478;42.626;23.320;2023-08-21T07:04:30;11.25;;;7.00;;
39788;SDS011;25478;42.626;23.320;2023-08-21T07:06:58;20.15;;;10.25;;
39788;SDS011;25478;42.626;23.320;2023-08-21T07:09:23;16.42;;;9.00;;
39788;SDS011;25478;42.626;23.320;2023-08-21T07:11:49;14.05;;;7.57;;
39788;SDS011;25478;42.626;23.320;2023-08-21T07:14:14;14.43;;;7.93;;
39788;SDS011;25478;42.626;23.320;2023-08-21T07:16:42;11.63;;;7.03;;
39788;SDS011;25478;42.626;23.320;2023-08-21T07:19:08;11.85;;;7.30;;
39788;SDS011;25478;42.626;23.320;2023-08-21T07:21:33;12.18;;;7.13;;
39788;SDS011;25478;42.626;23.320;2023-08-21T07:24:02;10.10;;;6.93;;
39788;SDS011;25478;42.626;23.320;2023-08-21T07:26:28;14.10;;;7.50;;
39788;SDS011;25478;42.626;23.320;2023-08-21T07:28:53;16.15;;;7.50;;
39788;SDS011;25478;42.626;23.320;2023-08-21T07:31:19;10.13;;;6.82;;
39788;SDS011;25478;42.626;23.320;2023-08-21T07:33:44;10.10;;;7.50;;
39788;SDS011;25478;42.626;23.320;2023-08-21T07:36:10;10.15;;;7.05;;
39788;SDS011;25478;42.626;23.320;2023-08-21T07:38:41;10.40;;;6.40;;
39788;SDS011;25478;42.626;23.320;2023-08-21T07:41:08;12.32;;;7.15;;
39788;SDS011;25478;42.626;23.320;2023-08-21T07:43:39;11.13;;;7.60;;
39788;SDS011;25478;42.626;23.320;2023-08-21T07:46:06;13.02;;;7.00;;
39788;SDS011;25478;42.626;23.320;2023-08-21T07:48:35;8.95;;;6.90;;
39788;SDS011;25478;42.626;23.320;2023-08-21T07:51:00;9.57;;;7.10;;
39788;SDS011;25478;42.626;23.320;2023-08-21T07:53:26;12.05;;;6.75;;
39788;SDS011;25478;42.626;23.320;2023-08-21T07:55:52;13.90;;;7.20;;
39788;SDS011;25478;42.626;23.320;2023-08-21T07:58:17;11.15;;;6.68;;
39788;SDS011;25478;42.626;23.320;2023-08-21T08:00:44;9.27;;;6.20;;
39788;SDS011;25478;42.626;23.320;2023-08-21T08:03:09;9.55;;;5.95;;
39788;SDS011;25478;42.626;23.320;2023-08-21T08:05:36;10.82;;;6.47;;
39788;SDS011;25478;42.626;23.320;2023-08-21T08:08:02;8.82;;;6.03;;
39788;SDS011;25478;42.626;23.320;2023-08-21T08:10:28;7.90;;;6.30;;
39788;SDS011;25478;42.626;23.320;2023-08-21T08:12:53;11.30;;;7.50;;
39788;SDS011;25478;42.626;23.320;2023-08-21T08:15:19;9.45;;;6.10;;
39788;SDS011;25478;42.626;23.320;2023-08-21T08:17:45;8.52;;;5.97;;
39788;SDS011;25478;42.626;23.320;2023-08-21T08:20:11;6.80;;;5.97;;
39788;SDS011;25478;42.626;23.320;2023-08-21T08:22:38;8.20;;;6.25;;
39788;SDS011;25478;42.626;23.320;2023-08-21T08:25:07;9.07;;;6.55;;
39788;SDS011;25478;42.626;23.320;2023-08-21T08:27:32;9.88;;;6.30;;
39788;SDS011;25478;42.626;23.320;2023-08-21T08:29:58;7.88;;;5.97;;
39788;SDS011;25478;42.626;23.320;2023-08-21T08:32:24;9.23;;;6.55;;
39788;SDS011;25478;42.626;23.320;2023-08-21T08:34:51;15.32;;;6.88;;
39788;SDS011;25478;42.626;23.320;2023-08-21T08:37:17;7.97;;;6.32;;
39788;SDS011;25478;42.626;23.320;2023-08-21T08:39:42;9.88;;;6.13;;
39788;SDS011;25478;42.626;23.320;2023-08-21T08:42:08;9.60;;;6.25;;
39788;SDS011;25478;42.626;23.320;2023-08-21T08:44:34;8.50;;;6.10;;
39788;SDS011;25478;42.626;23.320;2023-08-21T08:47:01;11.30;;;5.97;;
39788;SDS011;25478;42.626;23.320;2023-08-21T08:49:27;8.15;;;6.10;;
39788;SDS011;25478;42.626;23.320;2023-08-21T08:51:53;9.27;;;6.13;;
39788;SDS011;25478;42.626;23.320;2023-08-21T08:54:19;9.18;;;6.15;;
39788;SDS011;25478;42.626;23.320;2023-08-21T08:56:45;6.93;;;6.15;;
39788;SDS011;25478;42.626;23.320;2023-08-21T08:59:11;13.85;;;6.72;;
39788;SDS011;25478;42.626;23.320;2023-08-21T09:01:37;8.85;;;6.32;;
39788;SDS011;25478;42.626;23.320;2023-08-21T09:04:03;7.85;;;5.60;;
39788;SDS011;25478;42.626;23.320;2023-08-21T09:06:29;9.68;;;6.07;;
39788;SDS011;25478;42.626;23.320;2023-08-21T09:08:55;8.35;;;6.35;;
39788;SDS011;25478;42.626;23.320;2023-08-21T09:11:21;10.63;;;6.47;;
39788;SDS011;25478;42.626;23.320;2023-08-21T09:13:49;11.07;;;6.07;;
39788;SDS011;25478;42.626;23.320;2023-08-21T09:16:17;10.20;;;5.95;;
39788;SDS011;25478;42.626;23.320;2023-08-21T09:18:50;8.77;;;6.30;;
39788;SDS011;25478;42.626;23.320;2023-08-21T09:21:17;9.35;;;5.80;;
39788;SDS011;25478;42.626;23.320;2023-08-21T09:23:46;9.20;;;6.30;;
39788;SDS011;25478;42.626;23.320;2023-08-21T09:26:23;9.15;;;6.22;;
39788;SDS011;25478;42.626;23.320;2023-08-21T09:28:49;7.00;;;5.68;;
39788;SDS011;25478;42.626;23.320;2023-08-21T09:31:16;9.05;;;5.93;;
39788;SDS011;25478;42.626;23.320;2023-08-21T09:34:03;9.38;;;6.28;;
39788;SDS011;25478;42.626;23.320;2023-08-21T09:36:32;7.60;;;5.85;;
39788;SDS011;25478;42.626;23.320;2023-08-21T09:38:59;9.25;;;6.43;;
39788;SDS011;25478;42.626;23.320;2023-08-21T09:41:25;9.30;;;6.20;;
39788;SDS011;25478;42.626;23.320;2023-08-21T09:43:51;9.50;;;6.22;;
39788;SDS011;25478;42.626;23.320;2023-08-21T09:46:17;11.98;;;6.65;;
39788;SDS011;25478;42.626;23.320;2023-08-21T09:48:49;8.20;;;6.03;;
39788;SDS011;25478;42.626;23.320;2023-08-21T09:51:16;9.32;;;5.97;;
39788;SDS011;25478;42.626;23.320;2023-08-21T09:53:42;10.98;;;6.18;;
39788;SDS011;25478;42.626;23.320;2023-08-21T09:56:09;11.23;;;6.63;;
39788;SDS011;25478;42.626;23.320;2023-08-21T09:58:36;8.85;;;6.22;;
39788;SDS011;25478;42.626;23.320;2023-08-21T10:01:04;9.20;;;6.05;;
39788;SDS011;25478;42.626;23.320;2023-08-21T10:03:40;9.32;;;5.90;;
39788;SDS011;25478;42.626;23.320;2023-08-21T10:06:08;8.20;;;5.80;;
39788;SDS011;25478;42.626;23.320;2023-08-21T10:08:38;10.07;;;5.60;;
39788;SDS011;25478;42.626;23.320;2023-08-21T10:11:07;10.23;;;6.00;;
39788;SDS011;25478;42.626;23.320;2023-08-21T10:13:34;10.23;;;6.03;;
39788;SDS011;25478;42.626;23.320;2023-08-21T10:16:02;10.48;;;6.18;;
39788;SDS011;25478;42.626;23.320;2023-08-21T10:18:32;11.25;;;5.85;;
39788;SDS011;25478;42.626;23.320;2023-08-21T10:21:15;8.38;;;5.68;;
39788;SDS011;25478;42.626;23.320;2023-08-21T10:23:42;8.20;;;5.60;;
39788;SDS011;25478;42.626;23.320;2023-08-21T10:26:12;9.73;;;6.32;;
39788;SDS011;25478;42.626;23.320;2023-08-21T10:34:06;9.25;;;6.20;;
39788;SDS011;25478;42.626;23.320;2023-08-21T10:39:16;9.00;;;5.88;;
39788;SDS011;25478;42.626;23.320;2023-08-21T10:41:56;10.57;;;6.20;;
39788;SDS011;25478;42.626;23.320;2023-08-21T10:44:35;9.10;;;5.80;;
39788;SDS011;25478;42.626;23.320;2023-08-21T10:47:15;11.00;;;5.80;;
39788;SDS011;25478;42.626;23.320;2023-08-21T10:49:52;9.20;;;6.20;;
39788;SDS011;25478;42.626;23.320;2023-08-21T10:54:52;9.73;;;5.75;;
39788;SDS011;25478;42.626;23.320;2023-08-21T10:57:19;7.28;;;5.30;;
39788;SDS011;25478;42.626;23.320;2023-08-21T11:00:03;10.32;;;5.70;;
39788;SDS011;25478;42.626;23.320;2023-08-21T11:02:37;8.27;;;5.60;;
39788;SDS011;25478;42.626;23.320;2023-08-21T11:05:05;7.97;;;5.70;;
39788;SDS011;25478;42.626;23.320;2023-08-21T11:07:38;26.48;;;10.02;;
39788;SDS011;25478;42.626;23.320;2023-08-21T11:10:11;7.68;;;5.55;;
39788;SDS011;25478;42.626;23.320;2023-08-21T11:12:51;7.18;;;5.88;;
39788;SDS011;25478;42.626;23.320;2023-08-21T11:15:21;7.82;;;5.35;;
39788;SDS011;25478;42.626;23.320;2023-08-21T11:17:56;8.43;;;5.63;;
39788;SDS011;25478;42.626;23.320;2023-08-21T11:20:33;8.57;;;5.53;;
39788;SDS011;25478;42.626;23.320;2023-08-21T11:23:00;8.70;;;5.88;;
39788;SDS011;25478;42.626;23.320;2023-08-21T11:25:28;8.95;;;5.65;;
39788;SDS011;25478;42.626;23.320;2023-08-21T11:27:55;9.10;;;6.07;;
39788;SDS011;25478;42.626;23.320;2023-08-21T11:30:23;10.43;;;5.97;;
39788;SDS011;25478;42.626;23.320;2023-08-21T11:32:49;8.57;;;5.70;;
39788;SDS011;25478;42.626;23.320;2023-08-21T11:35:29;9.27;;;5.75;;
39788;SDS011;25478;42.626;23.320;2023-08-21T11:37:55;8.60;;;5.97;;
39788;SDS011;25478;42.626;23.320;2023-08-21T11:40:20;8.27;;;5.78;;
39788;SDS011;25478;42.626;23.320;2023-08-21T11:42:46;10.48;;;6.18;;
39788;SDS011;25478;42.626;23.320;2023-08-21T11:45:11;9.90;;;5.65;;
39788;SDS011;25478;42.626;23.320;2023-08-21T11:47:37;7.10;;;5.35;;
39788;SDS011;25478;42.626;23.320;2023-08-21T11:50:05;7.88;;;5.30;;
39788;SDS011;25478;42.626;23.320;2023-08-21T11:52:32;8.02;;;5.50;;
39788;SDS011;25478;42.626;23.320;2023-08-21T11:55:00;8.65;;;5.30;;
39788;SDS011;25478;42.626;23.320;2023-08-21T11:57:26;7.70;;;5.25;;
39788;SDS011;25478;42.626;23.320;2023-08-21T11:59:53;8.35;;;5.30;;
39788;SDS011;25478;42.626;23.320;2023-08-21T12:02:27;9.45;;;5.00;;
39788;SDS011;25478;42.626;23.320;2023-08-21T12:07:30;6.85;;;4.60;;
39788;SDS011;25478;42.626;23.320;2023-08-21T12:09:56;7.25;;;4.95;;
39788;SDS011;25478;42.626;23.320;2023-08-21T12:12:22;8.88;;;4.97;;
39788;SDS011;25478;42.626;23.320;2023-08-21T12:14:48;8.93;;;5.35;;
39788;SDS011;25478;42.626;23.320;2023-08-21T12:17:13;10.25;;;5.93;;
39788;SDS011;25478;42.626;23.320;2023-08-21T12:19:39;7.57;;;5.05;;
39788;SDS011;25478;42.626;23.320;2023-08-21T12:22:05;8.43;;;5.40;;
39788;SDS011;25478;42.626;23.320;2023-08-21T12:24:30;7.30;;;5.03;;
39788;SDS011;25478;42.626;23.320;2023-08-21T12:26:56;8.52;;;5.65;;
39788;SDS011;25478;42.626;23.320;2023-08-21T12:29:22;8.52;;;5.30;;
39788;SDS011;25478;42.626;23.320;2023-08-21T12:31:48;9.57;;;5.50;;
39788;SDS011;25478;42.626;23.320;2023-08-21T12:34:13;7.88;;;5.13;;
39788;SDS011;25478;42.626;23.320;2023-08-21T12:36:39;8.38;;;5.70;;
39788;SDS011;25478;42.626;23.320;2023-08-21T12:39:05;6.20;;;4.95;;
39788;SDS011;25478;42.626;23.320;2023-08-21T12:41:31;6.82;;;5.30;;
39788;SDS011;25478;42.626;23.320;2023-08-21T12:43:58;10.27;;;6.10;;
39788;SDS011;25478;42.626;23.320;2023-08-21T12:46:24;6.47;;;5.22;;
39788;SDS011;25478;42.626;23.320;2023-08-21T12:48:52;9.68;;;5.30;;
39788;SDS011;25478;42.626;23.320;2023-08-21T12:51:19;17.42;;;6.13;;
39788;SDS011;25478;42.626;23.320;2023-08-21T12:53:44;9.40;;;5.15;;
39788;SDS011;25478;42.626;23.320;2023-08-21T12:56:10;11.10;;;5.65;;
39788;SDS011;25478;42.626;23.320;2023-08-21T12:58:36;7.72;;;5.20;;
39788;SDS011;25478;42.626;23.320;2023-08-21T13:01:01;6.97;;;5.22;;
39788;SDS011;25478;42.626;23.320;2023-08-21T13:03:28;6.40;;;5.40;;
39788;SDS011;25478;42.626;23.320;2023-08-21T13:05:54;7.47;;;4.78;;
39788;SDS011;25478;42.626;23.320;2023-08-21T13:08:20;9.00;;;5.38;;
39788;SDS011;25478;42.626;23.320;2023-08-21T13:10:46;8.75;;;5.57;;
39788;SDS011;25478;42.626;23.320;2023-08-21T13:13:12;7.68;;;4.93;;
39788;SDS011;25478;42.626;23.320;2023-08-21T13:15:38;8.95;;;5.50;;
39788;SDS011;25478;42.626;23.320;2023-08-21T13:18:03;7.85;;;5.15;;
39788;SDS011;25478;42.626;23.320;2023-08-21T13:20:30;8.07;;;5.38;;
39788;SDS011;25478;42.626;23.320;2023-08-21T13:22:55;6.80;;;5.28;;
39788;SDS011;25478;42.626;23.320;2023-08-21T13:25:24;9.00;;;5.55;;
39788;SDS011;25478;42.626;23.320;2023-08-21T13:27:50;8.00;;;5.38;;
39788;SDS011;25478;42.626;23.320;2023-08-21T13:30:17;10.45;;;5.38;;
39788;SDS011;25478;42.626;23.320;2023-08-21T13:32:42;7.70;;;5.57;;
39788;SDS011;25478;42.626;23.320;2023-08-21T13:35:09;6.63;;;5.57;;
39788;SDS011;25478;42.626;23.320;2023-08-21T13:37:35;8.63;;;5.57;;
39788;SDS011;25478;42.626;23.320;2023-08-21T13:40:02;9.25;;;6.07;;
39788;SDS011;25478;42.626;23.320;2023-08-21T13:42:37;7.85;;;5.25;;
39788;SDS011;25478;42.626;23.320;2023-08-21T13:45:06;7.43;;;5.35;;
39788;SDS011;25478;42.626;23.320;2023-08-21T13:47:38;7.30;;;5.95;;
39788;SDS011;25478;42.626;23.320;2023-08-21T13:50:07;9.25;;;5.90;;
39788;SDS011;25478;42.626;23.320;2023-08-21T13:52:33;9.10;;;5.13;;
39788;SDS011;25478;42.626;23.320;2023-08-21T13:55:00;7.78;;;5.20;;
39788;SDS011;25478;42.626;23.320;2023-08-21T13:57:26;9.27;;;5.40;;
39788;SDS011;25478;42.626;23.320;2023-08-21T13:59:52;7.63;;;5.57;;
39788;SDS011;25478;42.626;23.320;2023-08-21T14:02:18;8.05;;;5.97;;
39788;SDS011;25478;42.626;23.320;2023-08-21T14:04:43;7.97;;;5.13;;
39788;SDS011;25478;42.626;23.320;2023-08-21T14:07:10;6.90;;;5.28;;
39788;SDS011;25478;42.626;23.320;2023-08-21T14:09:37;8.57;;;5.20;;
39788;SDS011;25478;42.626;23.320;2023-08-21T14:12:03;10.32;;;5.25;;
39788;SDS011;25478;42.626;23.320;2023-08-21T14:14:29;6.82;;;5.35;;
39788;SDS011;25478;42.626;23.320;2023-08-21T14:16:55;7.15;;;5.43;;
39788;SDS011;25478;42.626;23.320;2023-08-21T14:19:20;10.25;;;5.57;;
39788;SDS011;25478;42.626;23.320;2023-08-21T14:21:46;8.85;;;5.70;;
39788;SDS011;25478;42.626;23.320;2023-08-21T14:24:11;8.85;;;5.75;;
39788;SDS011;25478;42.626;23.320;2023-08-21T14:26:37;7.05;;;5.85;;
39788;SDS011;25478;42.626;23.320;2023-08-21T14:29:05;6.82;;;5.72;;
39788;SDS011;25478;42.626;23.320;2023-08-21T14:31:31;6.22;;;5.35;;
39788;SDS011;25478;42.626;23.320;2023-08-21T14:33:57;7.78;;;5.70;;
39788;SDS011;25478;42.626;23.320;2023-08-21T14:36:23;9.95;;;6.28;;
39788;SDS011;25478;42.626;23.320;2023-08-21T14:38:49;6.47;;;5.53;;
39788;SDS011;25478;42.626;23.320;2023-08-21T14:41:15;9.23;;;5.30;;
39788;SDS011;25478;42.626;23.320;2023-08-21T14:43:42;7.43;;;5.47;;
39788;SDS011;25478;42.626;23.320;2023-08-21T14:46:09;7.85;;;5.82;;
39788;SDS011;25478;42.626;23.320;2023-08-21T14:48:35;9.20;;;5.70;;